createdAt,value
2023-02-09T06:59:04.305Z,34.00
2023-02-09T07:01:33.297Z,33.55
2023-02-09T07:04:00.354Z,37.92
2023-02-09T07:06:27.377Z,40.17
2023-02-09T07:08:58.258Z,36.65
2023-02-09T07:11:25.228Z,39.65
2023-02-09T07:13:52.017Z,39.15
2023-02-09T07:16:18.963Z,35.42
2023-02-09T07:18:45.655Z,32.30
2023-02-09T07:21:19.903Z,36.92
2023-02-09T07:23:47.758Z,31.52
2023-02-09T07:26:16.433Z,31.08
2023-02-09T07:28:43.690Z,33.85
2023-02-09T07:31:12.883Z,29.80
2023-02-09T07:33:39.801Z,32.72
2023-02-09T07:36:08.784Z,32.78
2023-02-09T07:38:36.147Z,30.55
2023-02-09T07:41:05.235Z,31.92
2023-02-09T07:43:34.586Z,37.42
2023-02-09T07:46:04.050Z,40.20
2023-02-09T07:48:31.481Z,37.85
2023-02-09T07:50:58.973Z,32.92
2023-02-09T07:53:31.287Z,35.65
2023-02-09T07:56:01.073Z,32.70
2023-02-09T07:58:33.597Z,33.95
2023-02-09T08:01:06.864Z,33.00
2023-02-09T08:03:35.862Z,31.70
2023-02-09T08:06:30.399Z,32.55
2023-02-09T08:09:04.892Z,30.92
2023-02-09T08:11:54.709Z,29.17
2023-02-09T08:14:29.459Z,27.40
2023-02-09T08:17:20.089Z,25.65
2023-02-09T08:19:51.383Z,26.00
2023-02-09T08:22:18.592Z,25.58
2023-02-09T08:24:45.394Z,25.42
2023-02-09T08:27:12.074Z,24.15
2023-02-09T08:29:38.928Z,25.95
2023-02-09T08:32:05.827Z,25.77
2023-02-09T08:34:32.546Z,25.83
2023-02-09T08:36:59.199Z,27.05
2023-02-09T08:39:25.925Z,26.30
2023-02-09T08:41:52.658Z,23.48
2023-02-09T08:44:19.332Z,25.35
2023-02-09T08:46:46.205Z,23.80
2023-02-09T08:49:13.305Z,26.52
2023-02-09T08:51:40.073Z,21.23
2023-02-09T08:54:06.786Z,21.05
2023-02-09T08:56:33.501Z,24.60
2023-02-09T08:59:00.275Z,20.88
2023-02-09T09:01:27.051Z,22.63
2023-02-09T09:03:53.883Z,24.30
2023-02-09T09:06:22.197Z,24.08
2023-02-09T09:08:48.884Z,20.50
2023-02-09T09:11:15.651Z,23.67
2023-02-09T09:13:42.480Z,21.33
2023-02-09T09:16:17.617Z,20.13
2023-02-09T09:18:45.320Z,23.55
2023-02-09T09:21:13.820Z,20.50
2023-02-09T09:23:40.598Z,23.73
2023-02-09T09:26:07.652Z,19.50
2023-02-09T09:28:34.425Z,20.20
2023-02-09T09:31:08.194Z,21.58
2023-02-09T09:33:34.944Z,22.80
2023-02-09T09:36:02.956Z,22.42
2023-02-09T09:38:29.876Z,19.52
2023-02-09T09:40:56.777Z,24.13
2023-02-09T09:43:31.155Z,20.05
2023-02-09T09:45:58.326Z,22.98
2023-02-09T09:48:28.511Z,20.63
2023-02-09T09:51:00.346Z,21.00
2023-02-09T09:53:36.136Z,20.00
2023-02-09T09:56:07.472Z,20.30
2023-02-09T09:58:35.542Z,19.95
2023-02-09T10:01:02.289Z,19.67
2023-02-09T10:03:29.026Z,22.35
2023-02-09T10:06:01.754Z,17.88
2023-02-09T10:08:35.136Z,19.40
2023-02-09T10:11:09.886Z,18.73
2023-02-09T10:13:52.012Z,17.35
2023-02-09T10:16:24.762Z,15.98
2023-02-09T10:18:52.992Z,16.10
2023-02-09T10:21:20.572Z,16.85
2023-02-09T10:24:00.999Z,17.23
2023-02-09T10:26:33.775Z,16.20
2023-02-09T10:29:10.944Z,17.90
2023-02-09T10:31:40.701Z,17.90
2023-02-09T10:34:19.271Z,18.10
2023-02-09T10:36:45.961Z,17.52
2023-02-09T10:39:14.539Z,16.27
2023-02-09T10:41:43.759Z,16.50
2023-02-09T10:44:19.738Z,17.13
2023-02-09T10:46:47.461Z,17.00
2023-02-09T10:49:35.930Z,17.55
2023-02-09T10:52:12.500Z,16.27
2023-02-09T10:54:46.669Z,15.93
2023-02-09T10:57:22.514Z,15.85
2023-02-09T10:59:54.950Z,17.55
2023-02-09T11:02:41.416Z,15.23
2023-02-09T11:05:20.445Z,16.77
2023-02-09T11:07:55.611Z,20.25
2023-02-09T11:10:22.913Z,17.20
2023-02-09T11:12:49.610Z,17.35
2023-02-09T16:28:24.911Z,24.90
2023-02-09T16:31:48.701Z,26.67
2023-02-09T16:42:36.882Z,23.10
2023-02-09T16:50:28.326Z,24.38
2023-02-09T16:53:08.509Z,18.17
2023-02-09T16:56:29.096Z,18.65
2023-02-09T17:03:23.350Z,30.02
2023-02-09T17:06:30.563Z,31.50
2023-02-09T17:16:12.678Z,24.83
2023-02-09T17:18:42.381Z,20.92
2023-02-09T17:21:23.134Z,20.52
2023-02-09T17:23:51.197Z,21.35
2023-02-09T17:26:18.567Z,20.15
2023-02-09T17:28:45.754Z,20.02
2023-02-09T17:31:18.063Z,18.50
2023-02-09T17:33:47.183Z,18.80
